This is the latest recevied weather packets stored in our database for station/object KE5QKR. If no packets are shown the sender has not sent any weather packets the latest 1 day(s).
| Time | Temp. | Humidity | Pressure | Rain* | Wind** | Luminosity | Snow |
|---|---|---|---|---|---|---|---|
| 1778004531 | 27.78° C | 67% | 1011.6 hPa | 0 mm | 0.45 m/s, 322° | 896 W/m² | - |
| 1778004227 | 27.78° C | 69% | 1011.8 hPa | 0 mm | 0 m/s | 268 W/m² | - |
| 1778003924 | 27.78° C | 65% | 1011.7 hPa | 0 mm | 0.45 m/s, 294° | 332 W/m² | - |
| 1778003620 | 27.78° C | 67% | 1011.6 hPa | 0 mm | 0 m/s | 687 W/m² | - |
| 1778003317 | 27.78° C | 68% | 1011.7 hPa | 0 mm | 0.89 m/s, 297° | 527 W/m² | - |
| 1778003014 | 27.78° C | 68% | 1011.6 hPa | 0 mm | 0.45 m/s, 246° | 463 W/m² | - |
| 1778002710 | 27.78° C | 68% | 1011.9 hPa | 0 mm | 0 m/s | 913 W/m² | - |
| 1778002406 | 26.67° C | 69% | 1011.8 hPa | 0 mm | 0.45 m/s, 16° | 899 W/m² | - |
| 1778002104 | 27.22° C | 69% | 1011.8 hPa | 0 mm | 0.89 m/s, 244° | 549 W/m² | - |
| 1778001802 | 27.22° C | 68% | 1011.8 hPa | 0 mm | 0 m/s | 804 W/m² | - |
| 1778001501 | 26.67° C | 70% | 1011.8 hPa | 0 mm | 0.89 m/s, 293° | 859 W/m² | - |
| 1778001198 | 26.67° C | 70% | 1011.7 hPa | 0 mm | 0.45 m/s, 167° | 737 W/m² | - |
| 1778000894 | 27.22° C | 70% | 1011.8 hPa | 0 mm | 0 m/s | 756 W/m² | - |
| 1778000592 | 27.78° C | 69% | 1011.7 hPa | 0 mm | 0.45 m/s, 227° | 263 W/m² | - |
| 1778000287 | 27.22° C | 69% | 1011.9 hPa | 0 mm | 0.45 m/s, 75° | 839 W/m² | - |
| 1777999983 | 27.22° C | 69% | 1012 hPa | 0 mm | 0.45 m/s, 20° | 691 W/m² | - |
| 1777999679 | 26.67° C | 68% | 1012 hPa | 0 mm | 0.45 m/s, 328° | 473 W/m² | - |
| 1777999376 | 26.11° C | 73% | 1012.2 hPa | 0 mm | 0.89 m/s, 274° | 721 W/m² | - |
| 1777999074 | 25.56° C | 74% | 1012.2 hPa | 0 mm | 0 m/s | 243 W/m² | - |
| 1777998773 | 25° C | 74% | 1012 hPa | 0 mm | 0.89 m/s, 291° | 323 W/m² | - |
| 1777998470 | 25.56° C | 74% | 1012.3 hPa | 0 mm | 0.45 m/s, 222° | 447 W/m² | - |
| 1777998166 | 25.56° C | 74% | 1012.2 hPa | 0 mm | 0.45 m/s, 311° | 597 W/m² | - |
| 1777997863 | 25.56° C | 73% | 1012.3 hPa | 0 mm | 0 m/s | 339 W/m² | - |
| 1777997561 | 25.56° C | 72% | 1012.3 hPa | 0 mm | 0 m/s | 498 W/m² | - |
| 1777997258 | 25.56° C | 74% | 1012.3 hPa | 0 mm | 0 m/s | 432 W/m² | - |
* Rain latest hour (hover to see other rain measurements)
** Current wind speed in m/s (hover to see current wind gust speed)